Aviation Digital Data Service (ADDS)

Output produced by TAFs form (0548 UTC 19 September 2014)
found at http://aviationweather.gov/adds/tafs/
 
KDMN 190540Z 1906/2006 VRB05KT P6SM VCSH BKN020 
     FM190900 23004KT 3SM BR BKN020 
     FM191300 31006KT P6SM SCT050 BKN150 
     FM200200 30004KT P6SM FEW160 SCT250